sensor_id;sensor_type;location;lat;lon;timestamp;P1;P2;P0
70249;PMS5003;57644;48.416;-123.374;2023-03-01T00:00:04;0;0;
70249;PMS5003;57644;48.416;-123.374;2023-03-01T00:02:34;0;0;
70249;PMS5003;57644;48.416;-123.374;2023-03-01T00:05:05;0;0;
70249;PMS5003;57644;48.416;-123.374;2023-03-01T00:07:35;0;0;
70249;PMS5003;57644;48.416;-123.374;2023-03-01T00:10:06;1;0;
70249;PMS5003;57644;48.416;-123.374;2023-03-01T00:12:36;0;0;
70249;PMS5003;57644;48.416;-123.374;2023-03-01T00:15:07;0;0;
70249;PMS5003;57644;48.416;-123.374;2023-03-01T00:17:37;0;0;
70249;PMS5003;57644;48.416;-123.374;2023-03-01T00:20:08;0;0;
70249;PMS5003;57644;48.416;-123.374;2023-03-01T00:22:38;0;0;
70249;PMS5003;57644;48.416;-123.374;2023-03-01T00:25:09;1;0;
70249;PMS5003;57644;48.416;-123.374;2023-03-01T00:27:40;0;0;
70249;PMS5003;57644;48.416;-123.374;2023-03-01T00:30:10;0;0;
70249;PMS5003;57644;48.416;-123.374;2023-03-01T00:32:41;1;1;
70249;PMS5003;57644;48.416;-123.374;2023-03-01T00:35:11;3;3;
70249;PMS5003;57644;48.416;-123.374;2023-03-01T00:37:42;2;2;
70249;PMS5003;57644;48.416;-123.374;2023-03-01T00:40:13;1;1;
70249;PMS5003;57644;48.416;-123.374;2023-03-01T00:42:43;3;2;
70249;PMS5003;57644;48.416;-123.374;2023-03-01T00:45:13;2;2;
70249;PMS5003;57644;48.416;-123.374;2023-03-01T00:47:44;1;1;
70249;PMS5003;57644;48.416;-123.374;2023-03-01T00:50:16;0;0;
70249;PMS5003;57644;48.416;-123.374;2023-03-01T00:52:45;0;0;
70249;PMS5003;57644;48.416;-123.374;2023-03-01T00:55:16;0;0;
70249;PMS5003;57644;48.416;-123.374;2023-03-01T00:57:46;0;0;
70249;PMS5003;57644;48.416;-123.374;2023-03-01T01:00:17;0;0;
70249;PMS5003;57644;48.416;-123.374;2023-03-01T01:02:48;0;0;
70249;PMS5003;57644;48.416;-123.374;2023-03-01T01:05:18;0;0;
70249;PMS5003;57644;48.416;-123.374;2023-03-01T01:07:49;3;2;
70249;PMS5003;57644;48.416;-123.374;2023-03-01T01:10:20;3;3;
70249;PMS5003;57644;48.416;-123.374;2023-03-01T01:12:50;4;4;
70249;PMS5003;57644;48.416;-123.374;2023-03-01T01:15:20;7;6;
70249;PMS5003;57644;48.416;-123.374;2023-03-01T01:17:51;6;6;
70249;PMS5003;57644;48.416;-123.374;2023-03-01T01:20:23;7;6;
70249;PMS5003;57644;48.416;-123.374;2023-03-01T01:22:52;2;1;
70249;PMS5003;57644;48.416;-123.374;2023-03-01T01:25:22;9;8;
70249;PMS5003;57644;48.416;-123.374;2023-03-01T01:27:53;3;3;
70249;PMS5003;57644;48.416;-123.374;2023-03-01T01:30:24;1;1;
70249;PMS5003;57644;48.416;-123.374;2023-03-01T01:32:54;2;2;
70249;PMS5003;57644;48.416;-123.374;2023-03-01T01:35:25;2;2;
70249;PMS5003;57644;48.416;-123.374;2023-03-01T01:37:56;1;1;
70249;PMS5003;57644;48.416;-123.374;2023-03-01T01:40:26;2;1;
70249;PMS5003;57644;48.416;-123.374;2023-03-01T01:42:57;1;1;
70249;PMS5003;57644;48.416;-123.374;2023-03-01T01:45:29;3;2;
70249;PMS5003;57644;48.416;-123.374;2023-03-01T01:47:59;11;10;
70249;PMS5003;57644;48.416;-123.374;2023-03-01T01:50:29;9;9;
70249;PMS5003;57644;48.416;-123.374;2023-03-01T01:52:59;7;7;
70249;PMS5003;57644;48.416;-123.374;2023-03-01T01:55:30;4;4;
70249;PMS5003;57644;48.416;-123.374;2023-03-01T01:58:02;3;2;
70249;PMS5003;57644;48.416;-123.374;2023-03-01T02:00:31;4;3;
70249;PMS5003;57644;48.416;-123.374;2023-03-01T02:03:03;2;2;
70249;PMS5003;57644;48.416;-123.374;2023-03-01T02:05:34;3;3;
70249;PMS5003;57644;48.416;-123.374;2023-03-01T02:08:03;1;1;
70249;PMS5003;57644;48.416;-123.374;2023-03-01T02:10:34;2;2;
70249;PMS5003;57644;48.416;-123.374;2023-03-01T02:13:05;5;5;
70249;PMS5003;57644;48.416;-123.374;2023-03-01T02:15:36;5;5;
70249;PMS5003;57644;48.416;-123.374;2023-03-01T02:18:06;4;4;
70249;PMS5003;57644;48.416;-123.374;2023-03-01T02:20:39;4;3;
70249;PMS5003;57644;48.416;-123.374;2023-03-01T02:23:07;3;3;
70249;PMS5003;57644;48.416;-123.374;2023-03-01T02:25:39;3;3;
70249;PMS5003;57644;48.416;-123.374;2023-03-01T02:28:10;4;4;
70249;PMS5003;57644;48.416;-123.374;2023-03-01T02:30:39;4;4;
70249;PMS5003;57644;48.416;-123.374;2023-03-01T02:33:09;6;6;
70249;PMS5003;57644;48.416;-123.374;2023-03-01T02:35:39;7;7;
70249;PMS5003;57644;48.416;-123.374;2023-03-01T02:38:10;8;8;
70249;PMS5003;57644;48.416;-123.374;2023-03-01T02:40:41;6;5;
70249;PMS5003;57644;48.416;-123.374;2023-03-01T02:43:11;6;6;
70249;PMS5003;57644;48.416;-123.374;2023-03-01T02:45:43;10;8;
70249;PMS5003;57644;48.416;-123.374;2023-03-01T02:48:12;9;8;
70249;PMS5003;57644;48.416;-123.374;2023-03-01T02:50:50;10;10;
70249;PMS5003;57644;48.416;-123.374;2023-03-01T02:53:15;10;10;
70249;PMS5003;57644;48.416;-123.374;2023-03-01T02:55:44;13;12;
70249;PMS5003;57644;48.416;-123.374;2023-03-01T02:58:15;9;9;
70249;PMS5003;57644;48.416;-123.374;2023-03-01T03:00:45;19;17;
70249;PMS5003;57644;48.416;-123.374;2023-03-01T03:03:16;16;16;
70249;PMS5003;57644;48.416;-123.374;2023-03-01T03:05:46;17;17;
70249;PMS5003;57644;48.416;-123.374;2023-03-01T03:08:16;22;21;
70249;PMS5003;57644;48.416;-123.374;2023-03-01T03:10:47;19;17;
70249;PMS5003;57644;48.416;-123.374;2023-03-01T03:13:16;18;17;
70249;PMS5003;57644;48.416;-123.374;2023-03-01T03:15:47;18;18;
70249;PMS5003;57644;48.416;-123.374;2023-03-01T03:18:20;22;22;
70249;PMS5003;57644;48.416;-123.374;2023-03-01T03:20:48;18;17;
70249;PMS5003;57644;48.416;-123.374;2023-03-01T03:23:19;20;20;
70249;PMS5003;57644;48.416;-123.374;2023-03-01T03:25:49;19;19;
70249;PMS5003;57644;48.416;-123.374;2023-03-01T03:28:19;24;23;
70249;PMS5003;57644;48.416;-123.374;2023-03-01T03:30:49;26;24;
70249;PMS5003;57644;48.416;-123.374;2023-03-01T03:33:20;24;24;
70249;PMS5003;57644;48.416;-123.374;2023-03-01T03:35:50;28;25;
70249;PMS5003;57644;48.416;-123.374;2023-03-01T03:38:21;26;24;
70249;PMS5003;57644;48.416;-123.374;2023-03-01T03:40:52;31;30;
70249;PMS5003;57644;48.416;-123.374;2023-03-01T03:43:22;34;33;
70249;PMS5003;57644;48.416;-123.374;2023-03-01T03:45:52;24;24;
70249;PMS5003;57644;48.416;-123.374;2023-03-01T03:48:23;31;30;
70249;PMS5003;57644;48.416;-123.374;2023-03-01T03:50:54;26;25;
70249;PMS5003;57644;48.416;-123.374;2023-03-01T03:53:25;30;28;
70249;PMS5003;57644;48.416;-123.374;2023-03-01T03:55:54;33;33;
70249;PMS5003;57644;48.416;-123.374;2023-03-01T03:58:25;36;35;
70249;PMS5003;57644;48.416;-123.374;2023-03-01T04:00:55;34;34;
70249;PMS5003;57644;48.416;-123.374;2023-03-01T04:03:25;34;33;
70249;PMS5003;57644;48.416;-123.374;2023-03-01T04:05:57;35;33;
70249;PMS5003;57644;48.416;-123.374;2023-03-01T04:08:25;31;29;
70249;PMS5003;57644;48.416;-123.374;2023-03-01T04:10:58;41;38;
70249;PMS5003;57644;48.416;-123.374;2023-03-01T04:13:26;38;36;
70249;PMS5003;57644;48.416;-123.374;2023-03-01T04:15:57;36;36;
70249;PMS5003;57644;48.416;-123.374;2023-03-01T04:18:28;37;34;
70249;PMS5003;57644;48.416;-123.374;2023-03-01T04:20:58;40;39;
70249;PMS5003;57644;48.416;-123.374;2023-03-01T04:23:29;39;37;
70249;PMS5003;57644;48.416;-123.374;2023-03-01T04:25:59;37;36;
70249;PMS5003;57644;48.416;-123.374;2023-03-01T04:28:30;47;42;
70249;PMS5003;57644;48.416;-123.374;2023-03-01T04:31:02;36;34;
70249;PMS5003;57644;48.416;-123.374;2023-03-01T04:33:30;40;36;
70249;PMS5003;57644;48.416;-123.374;2023-03-01T04:36:00;45;41;
70249;PMS5003;57644;48.416;-123.374;2023-03-01T04:38:31;43;41;
70249;PMS5003;57644;48.416;-123.374;2023-03-01T04:41:01;39;36;
70249;PMS5003;57644;48.416;-123.374;2023-03-01T04:43:31;43;37;
70249;PMS5003;57644;48.416;-123.374;2023-03-01T04:46:02;49;46;
70249;PMS5003;57644;48.416;-123.374;2023-03-01T04:48:32;35;32;
70249;PMS5003;57644;48.416;-123.374;2023-03-01T04:51:03;31;29;
70249;PMS5003;57644;48.416;-123.374;2023-03-01T04:53:33;36;34;
70249;PMS5003;57644;48.416;-123.374;2023-03-01T04:56:04;35;32;
70249;PMS5003;57644;48.416;-123.374;2023-03-01T04:58:34;30;29;
70249;PMS5003;57644;48.416;-123.374;2023-03-01T05:01:08;35;34;
70249;PMS5003;57644;48.416;-123.374;2023-03-01T05:03:35;31;28;
70249;PMS5003;57644;48.416;-123.374;2023-03-01T05:06:05;36;33;
70249;PMS5003;57644;48.416;-123.374;2023-03-01T05:08:36;37;35;
70249;PMS5003;57644;48.416;-123.374;2023-03-01T05:11:07;36;34;
70249;PMS5003;57644;48.416;-123.374;2023-03-01T05:13:37;33;33;
70249;PMS5003;57644;48.416;-123.374;2023-03-01T05:16:08;42;38;
70249;PMS5003;57644;48.416;-123.374;2023-03-01T05:18:38;33;32;
70249;PMS5003;57644;48.416;-123.374;2023-03-01T05:21:09;35;34;
70249;PMS5003;57644;48.416;-123.374;2023-03-01T05:23:38;41;37;
70249;PMS5003;57644;48.416;-123.374;2023-03-01T05:26:09;38;37;
70249;PMS5003;57644;48.416;-123.374;2023-03-01T05:28:40;36;35;
70249;PMS5003;57644;48.416;-123.374;2023-03-01T05:31:10;38;35;
70249;PMS5003;57644;48.416;-123.374;2023-03-01T05:33:41;39;38;
70249;PMS5003;57644;48.416;-123.374;2023-03-01T05:36:11;41;40;
70249;PMS5003;57644;48.416;-123.374;2023-03-01T05:38:41;36;36;
70249;PMS5003;57644;48.416;-123.374;2023-03-01T05:41:14;32;31;
70249;PMS5003;57644;48.416;-123.374;2023-03-01T05:43:42;34;32;
70249;PMS5003;57644;48.416;-123.374;2023-03-01T05:46:12;42;38;
70249;PMS5003;57644;48.416;-123.374;2023-03-01T05:48:43;39;35;
70249;PMS5003;57644;48.416;-123.374;2023-03-01T05:51:13;35;34;
70249;PMS5003;57644;48.416;-123.374;2023-03-01T05:53:43;33;32;
70249;PMS5003;57644;48.416;-123.374;2023-03-01T05:56:14;42;39;
70249;PMS5003;57644;48.416;-123.374;2023-03-01T05:58:44;31;29;
70249;PMS5003;57644;48.416;-123.374;2023-03-01T06:01:15;35;32;
70249;PMS5003;57644;48.416;-123.374;2023-03-01T06:03:45;68;64;
70249;PMS5003;57644;48.416;-123.374;2023-03-01T06:06:15;52;49;
70249;PMS5003;57644;48.416;-123.374;2023-03-01T06:08:46;45;44;
70249;PMS5003;57644;48.416;-123.374;2023-03-01T06:11:16;46;45;
70249;PMS5003;57644;48.416;-123.374;2023-03-01T06:13:46;48;47;
70249;PMS5003;57644;48.416;-123.374;2023-03-01T06:16:17;47;46;
70249;PMS5003;57644;48.416;-123.374;2023-03-01T06:18:47;44;41;
70249;PMS5003;57644;48.416;-123.374;2023-03-01T06:21:17;43;38;
70249;PMS5003;57644;48.416;-123.374;2023-03-01T06:23:48;35;32;
70249;PMS5003;57644;48.416;-123.374;2023-03-01T06:26:18;31;30;
70249;PMS5003;57644;48.416;-123.374;2023-03-01T06:28:49;23;22;
70249;PMS5003;57644;48.416;-123.374;2023-03-01T06:31:19;28;25;
70249;PMS5003;57644;48.416;-123.374;2023-03-01T06:33:50;18;17;
70249;PMS5003;57644;48.416;-123.374;2023-03-01T06:36:20;23;23;
70249;PMS5003;57644;48.416;-123.374;2023-03-01T06:38:51;25;23;
70249;PMS5003;57644;48.416;-123.374;2023-03-01T06:41:21;22;21;
70249;PMS5003;57644;48.416;-123.374;2023-03-01T06:43:51;24;23;
70249;PMS5003;57644;48.416;-123.374;2023-03-01T06:46:22;25;24;
70249;PMS5003;57644;48.416;-123.374;2023-03-01T06:48:51;23;23;
70249;PMS5003;57644;48.416;-123.374;2023-03-01T06:51:22;25;24;
70249;PMS5003;57644;48.416;-123.374;2023-03-01T06:53:52;24;21;
70249;PMS5003;57644;48.416;-123.374;2023-03-01T06:56:23;26;25;
70249;PMS5003;57644;48.416;-123.374;2023-03-01T06:58:54;24;24;
70249;PMS5003;57644;48.416;-123.374;2023-03-01T07:01:24;21;21;
70249;PMS5003;57644;48.416;-123.374;2023-03-01T07:03:55;25;25;
70249;PMS5003;57644;48.416;-123.374;2023-03-01T07:06:24;22;22;
70249;PMS5003;57644;48.416;-123.374;2023-03-01T07:08:55;15;15;
70249;PMS5003;57644;48.416;-123.374;2023-03-01T07:11:26;21;20;
70249;PMS5003;57644;48.416;-123.374;2023-03-01T07:13:56;16;16;
70249;PMS5003;57644;48.416;-123.374;2023-03-01T07:16:26;23;20;
70249;PMS5003;57644;48.416;-123.374;2023-03-01T07:18:57;20;19;
70249;PMS5003;57644;48.416;-123.374;2023-03-01T07:21:28;18;18;
70249;PMS5003;57644;48.416;-123.374;2023-03-01T07:23:58;18;16;
70249;PMS5003;57644;48.416;-123.374;2023-03-01T07:26:29;21;20;
70249;PMS5003;57644;48.416;-123.374;2023-03-01T07:28:59;19;19;
70249;PMS5003;57644;48.416;-123.374;2023-03-01T07:31:30;20;19;
70249;PMS5003;57644;48.416;-123.374;2023-03-01T07:34:00;16;16;
70249;PMS5003;57644;48.416;-123.374;2023-03-01T07:36:30;22;21;
70249;PMS5003;57644;48.416;-123.374;2023-03-01T07:39:02;20;19;
70249;PMS5003;57644;48.416;-123.374;2023-03-01T07:41:32;18;18;
70249;PMS5003;57644;48.416;-123.374;2023-03-01T07:44:02;20;19;
70249;PMS5003;57644;48.416;-123.374;2023-03-01T07:46:33;18;16;
70249;PMS5003;57644;48.416;-123.374;2023-03-01T07:49:04;16;16;
70249;PMS5003;57644;48.416;-123.374;2023-03-01T07:51:34;16;16;
70249;PMS5003;57644;48.416;-123.374;2023-03-01T07:54:05;14;14;
70249;PMS5003;57644;48.416;-123.374;2023-03-01T07:56:35;16;16;
70249;PMS5003;57644;48.416;-123.374;2023-03-01T07:59:05;19;15;
70249;PMS5003;57644;48.416;-123.374;2023-03-01T08:01:36;15;14;
70249;PMS5003;57644;48.416;-123.374;2023-03-01T08:04:07;12;12;
70249;PMS5003;57644;48.416;-123.374;2023-03-01T08:06:38;18;16;
70249;PMS5003;57644;48.416;-123.374;2023-03-01T08:09:08;19;16;
70249;PMS5003;57644;48.416;-123.374;2023-03-01T08:11:38;19;18;
70249;PMS5003;57644;48.416;-123.374;2023-03-01T08:14:09;19;18;
70249;PMS5003;57644;48.416;-123.374;2023-03-01T08:16:39;16;15;
70249;PMS5003;57644;48.416;-123.374;2023-03-01T08:19:11;17;14;
70249;PMS5003;57644;48.416;-123.374;2023-03-01T08:21:40;15;14;
70249;PMS5003;57644;48.416;-123.374;2023-03-01T08:24:10;16;14;
70249;PMS5003;57644;48.416;-123.374;2023-03-01T08:26:41;15;13;
70249;PMS5003;57644;48.416;-123.374;2023-03-01T08:29:11;16;15;
70249;PMS5003;57644;48.416;-123.374;2023-03-01T08:31:42;13;12;
70249;PMS5003;57644;48.416;-123.374;2023-03-01T08:34:13;19;18;
70249;PMS5003;57644;48.416;-123.374;2023-03-01T08:36:43;16;16;
70249;PMS5003;57644;48.416;-123.374;2023-03-01T08:39:14;21;16;
70249;PMS5003;57644;48.416;-123.374;2023-03-01T08:41:44;15;14;
70249;PMS5003;57644;48.416;-123.374;2023-03-01T08:44:15;16;16;
70249;PMS5003;57644;48.416;-123.374;2023-03-01T08:46:44;14;14;
70249;PMS5003;57644;48.416;-123.374;2023-03-01T08:49:16;18;14;
70249;PMS5003;57644;48.416;-123.374;2023-03-01T08:51:46;16;16;
70249;PMS5003;57644;48.416;-123.374;2023-03-01T08:54:17;20;19;
70249;PMS5003;57644;48.416;-123.374;2023-03-01T08:56:47;19;19;
70249;PMS5003;57644;48.416;-123.374;2023-03-01T08:59:18;19;17;
70249;PMS5003;57644;48.416;-123.374;2023-03-01T09:01:48;17;16;
70249;PMS5003;57644;48.416;-123.374;2023-03-01T09:04:19;17;16;
70249;PMS5003;57644;48.416;-123.374;2023-03-01T09:06:49;17;13;
70249;PMS5003;57644;48.416;-123.374;2023-03-01T09:09:19;16;13;
70249;PMS5003;57644;48.416;-123.374;2023-03-01T09:11:50;17;17;
70249;PMS5003;57644;48.416;-123.374;2023-03-01T09:14:20;16;16;
70249;PMS5003;57644;48.416;-123.374;2023-03-01T09:16:51;20;19;
70249;PMS5003;57644;48.416;-123.374;2023-03-01T09:19:21;19;16;
70249;PMS5003;57644;48.416;-123.374;2023-03-01T09:21:51;13;13;
70249;PMS5003;57644;48.416;-123.374;2023-03-01T09:24:23;20;19;
70249;PMS5003;57644;48.416;-123.374;2023-03-01T09:26:54;17;15;
70249;PMS5003;57644;48.416;-123.374;2023-03-01T09:29:24;13;13;
70249;PMS5003;57644;48.416;-123.374;2023-03-01T09:31:54;20;20;
70249;PMS5003;57644;48.416;-123.374;2023-03-01T09:34:25;14;13;
70249;PMS5003;57644;48.416;-123.374;2023-03-01T09:36:56;17;13;
70249;PMS5003;57644;48.416;-123.374;2023-03-01T09:39:26;18;16;
70249;PMS5003;57644;48.416;-123.374;2023-03-01T09:41:58;16;14;
70249;PMS5003;57644;48.416;-123.374;2023-03-01T09:44:29;14;14;
70249;PMS5003;57644;48.416;-123.374;2023-03-01T09:46:57;13;11;
70249;PMS5003;57644;48.416;-123.374;2023-03-01T09:49:28;13;10;
70249;PMS5003;57644;48.416;-123.374;2023-03-01T09:51:59;13;12;
70249;PMS5003;57644;48.416;-123.374;2023-03-01T09:54:28;17;16;
70249;PMS5003;57644;48.416;-123.374;2023-03-01T09:57:03;14;13;
70249;PMS5003;57644;48.416;-123.374;2023-03-01T09:59:31;12;12;
70249;PMS5003;57644;48.416;-123.374;2023-03-01T10:02:01;19;18;
70249;PMS5003;57644;48.416;-123.374;2023-03-01T10:04:35;13;13;
70249;PMS5003;57644;48.416;-123.374;2023-03-01T10:07:05;15;15;
70249;PMS5003;57644;48.416;-123.374;2023-03-01T10:09:33;10;10;
70249;PMS5003;57644;48.416;-123.374;2023-03-01T10:12:04;16;15;
70249;PMS5003;57644;48.416;-123.374;2023-03-01T10:14:35;12;11;
70249;PMS5003;57644;48.416;-123.374;2023-03-01T10:17:04;19;18;
70249;PMS5003;57644;48.416;-123.374;2023-03-01T10:19:36;13;11;
70249;PMS5003;57644;48.416;-123.374;2023-03-01T10:22:16;11;11;
70249;PMS5003;57644;48.416;-123.374;2023-03-01T10:24:36;13;13;
70249;PMS5003;57644;48.416;-123.374;2023-03-01T10:27:07;11;11;
70249;PMS5003;57644;48.416;-123.374;2023-03-01T10:29:39;11;11;
70249;PMS5003;57644;48.416;-123.374;2023-03-01T10:32:08;12;10;
70249;PMS5003;57644;48.416;-123.374;2023-03-01T10:34:38;10;8;
70249;PMS5003;57644;48.416;-123.374;2023-03-01T10:37:10;12;10;
70249;PMS5003;57644;48.416;-123.374;2023-03-01T10:44:42;11;11;
70249;PMS5003;57644;48.416;-123.374;2023-03-01T10:47:14;10;10;
70249;PMS5003;57644;48.416;-123.374;2023-03-01T10:52:17;11;11;
70249;PMS5003;57644;48.416;-123.374;2023-03-01T10:54:43;9;8;
70249;PMS5003;57644;48.416;-123.374;2023-03-01T10:59:45;12;10;
70249;PMS5003;57644;48.416;-123.374;2023-03-01T11:02:16;10;8;
70249;PMS5003;57644;48.416;-123.374;2023-03-01T11:07:17;10;10;
70249;PMS5003;57644;48.416;-123.374;2023-03-01T11:09:47;14;11;
70249;PMS5003;57644;48.416;-123.374;2023-03-01T11:12:19;10;9;
70249;PMS5003;57644;48.416;-123.374;2023-03-01T11:14:50;9;9;
70249;PMS5003;57644;48.416;-123.374;2023-03-01T11:17:21;12;11;
70249;PMS5003;57644;48.416;-123.374;2023-03-01T11:22:20;11;10;
70249;PMS5003;57644;48.416;-123.374;2023-03-01T11:24:51;11;11;
70249;PMS5003;57644;48.416;-123.374;2023-03-01T11:27:22;11;10;
70249;PMS5003;57644;48.416;-123.374;2023-03-01T11:29:52;12;10;
70249;PMS5003;57644;48.416;-123.374;2023-03-01T11:32:23;14;12;
70249;PMS5003;57644;48.416;-123.374;2023-03-01T11:34:54;12;12;
70249;PMS5003;57644;48.416;-123.374;2023-03-01T11:37:29;11;11;
70249;PMS5003;57644;48.416;-123.374;2023-03-01T11:39:58;14;11;
70249;PMS5003;57644;48.416;-123.374;2023-03-01T11:42:27;12;12;
70249;PMS5003;57644;48.416;-123.374;2023-03-01T11:44:56;13;12;
70249;PMS5003;57644;48.416;-123.374;2023-03-01T11:47:30;12;10;
70249;PMS5003;57644;48.416;-123.374;2023-03-01T11:50:01;10;9;
70249;PMS5003;57644;48.416;-123.374;2023-03-01T11:52:30;11;10;
70249;PMS5003;57644;48.416;-123.374;2023-03-01T11:55:03;14;13;
70249;PMS5003;57644;48.416;-123.374;2023-03-01T11:57:37;12;11;
70249;PMS5003;57644;48.416;-123.374;2023-03-01T12:00:07;11;10;
70249;PMS5003;57644;48.416;-123.374;2023-03-01T12:05:05;6;6;
70249;PMS5003;57644;48.416;-123.374;2023-03-01T12:07:32;11;10;
70249;PMS5003;57644;48.416;-123.374;2023-03-01T12:12:34;11;9;
70249;PMS5003;57644;48.416;-123.374;2023-03-01T12:15:07;10;9;
70249;PMS5003;57644;48.416;-123.374;2023-03-01T12:20:09;34;32;
70249;PMS5003;57644;48.416;-123.374;2023-03-01T12:22:35;17;16;
70249;PMS5003;57644;48.416;-123.374;2023-03-01T12:27:40;11;10;
70249;PMS5003;57644;48.416;-123.374;2023-03-01T12:30:13;12;10;
70249;PMS5003;57644;48.416;-123.374;2023-03-01T12:32:40;10;9;
70249;PMS5003;57644;48.416;-123.374;2023-03-01T12:35:15;9;9;
70249;PMS5003;57644;48.416;-123.374;2023-03-01T12:37:41;8;8;
70249;PMS5003;57644;48.416;-123.374;2023-03-01T12:42:40;14;12;
70249;PMS5003;57644;48.416;-123.374;2023-03-01T12:47:44;8;7;
70249;PMS5003;57644;48.416;-123.374;2023-03-01T12:50:12;12;11;
70249;PMS5003;57644;48.416;-123.374;2023-03-01T12:52:42;9;8;
70249;PMS5003;57644;48.416;-123.374;2023-03-01T12:55:17;10;8;
70249;PMS5003;57644;48.416;-123.374;2023-03-01T12:57:43;10;10;
70249;PMS5003;57644;48.416;-123.374;2023-03-01T13:00:21;9;7;
70249;PMS5003;57644;48.416;-123.374;2023-03-01T13:02:45;8;8;
70249;PMS5003;57644;48.416;-123.374;2023-03-01T13:05:18;8;7;
70249;PMS5003;57644;48.416;-123.374;2023-03-01T13:07:48;10;9;
70249;PMS5003;57644;48.416;-123.374;2023-03-01T13:10:17;8;7;
70249;PMS5003;57644;48.416;-123.374;2023-03-01T13:12:50;8;7;
70249;PMS5003;57644;48.416;-123.374;2023-03-01T13:17:48;9;9;
70249;PMS5003;57644;48.416;-123.374;2023-03-01T13:20:19;8;8;
70249;PMS5003;57644;48.416;-123.374;2023-03-01T13:22:49;9;8;
70249;PMS5003;57644;48.416;-123.374;2023-03-01T13:25:19;12;10;
70249;PMS5003;57644;48.416;-123.374;2023-03-01T13:27:50;9;8;
70249;PMS5003;57644;48.416;-123.374;2023-03-01T13:32:51;8;8;
70249;PMS5003;57644;48.416;-123.374;2023-03-01T13:37:52;11;11;
70249;PMS5003;57644;48.416;-123.374;2023-03-01T13:42:54;8;8;
70249;PMS5003;57644;48.416;-123.374;2023-03-01T13:45:32;9;9;
70249;PMS5003;57644;48.416;-123.374;2023-03-01T13:47:56;11;9;
70249;PMS5003;57644;48.416;-123.374;2023-03-01T13:50:27;9;9;
70249;PMS5003;57644;48.416;-123.374;2023-03-01T13:52:57;11;10;
70249;PMS5003;57644;48.416;-123.374;2023-03-01T13:55:30;10;9;
70249;PMS5003;57644;48.416;-123.374;2023-03-01T13:57:57;10;10;
70249;PMS5003;57644;48.416;-123.374;2023-03-01T14:00:30;11;10;
70249;PMS5003;57644;48.416;-123.374;2023-03-01T14:03:00;11;10;
70249;PMS5003;57644;48.416;-123.374;2023-03-01T14:05:30;11;10;
70249;PMS5003;57644;48.416;-123.374;2023-03-01T14:08:00;8;8;
70249;PMS5003;57644;48.416;-123.374;2023-03-01T14:10:32;11;11;
70249;PMS5003;57644;48.416;-123.374;2023-03-01T14:13:04;9;9;
70249;PMS5003;57644;48.416;-123.374;2023-03-01T14:15:33;11;10;
70249;PMS5003;57644;48.416;-123.374;2023-03-01T14:18:02;17;15;
70249;PMS5003;57644;48.416;-123.374;2023-03-01T14:23:12;11;10;
70249;PMS5003;57644;48.416;-123.374;2023-03-01T14:25:34;10;10;
70249;PMS5003;57644;48.416;-123.374;2023-03-01T14:28:10;9;9;
70249;PMS5003;57644;48.416;-123.374;2023-03-01T14:30:36;9;9;
70249;PMS5003;57644;48.416;-123.374;2023-03-01T14:33:06;9;8;
70249;PMS5003;57644;48.416;-123.374;2023-03-01T14:35:36;11;10;
70249;PMS5003;57644;48.416;-123.374;2023-03-01T14:40:37;10;10;
70249;PMS5003;57644;48.416;-123.374;2023-03-01T14:43:09;10;9;
70249;PMS5003;57644;48.416;-123.374;2023-03-01T14:45:38;9;9;
70249;PMS5003;57644;48.416;-123.374;2023-03-01T14:48:10;10;9;
70249;PMS5003;57644;48.416;-123.374;2023-03-01T14:50:40;7;7;
70249;PMS5003;57644;48.416;-123.374;2023-03-01T14:53:13;10;8;
70249;PMS5003;57644;48.416;-123.374;2023-03-01T14:55:41;9;9;
70249;PMS5003;57644;48.416;-123.374;2023-03-01T14:58:12;9;8;
70249;PMS5003;57644;48.416;-123.374;2023-03-01T15:00:45;14;13;
70249;PMS5003;57644;48.416;-123.374;2023-03-01T15:03:12;10;9;
70249;PMS5003;57644;48.416;-123.374;2023-03-01T15:05:43;10;10;
70249;PMS5003;57644;48.416;-123.374;2023-03-01T15:08:16;12;12;
70249;PMS5003;57644;48.416;-123.374;2023-03-01T15:10:54;14;13;
70249;PMS5003;57644;48.416;-123.374;2023-03-01T15:13:14;12;12;
70249;PMS5003;57644;48.416;-123.374;2023-03-01T15:15:43;18;18;
70249;PMS5003;57644;48.416;-123.374;2023-03-01T15:18:14;16;13;
70249;PMS5003;57644;48.416;-123.374;2023-03-01T15:20:43;13;11;
70249;PMS5003;57644;48.416;-123.374;2023-03-01T15:23:19;13;12;
70249;PMS5003;57644;48.416;-123.374;2023-03-01T15:25:44;9;9;
70249;PMS5003;57644;48.416;-123.374;2023-03-01T15:28:19;9;9;
70249;PMS5003;57644;48.416;-123.374;2023-03-01T15:30:45;9;9;
70249;PMS5003;57644;48.416;-123.374;2023-03-01T15:33:17;11;10;
70249;PMS5003;57644;48.416;-123.374;2023-03-01T15:35:47;9;9;
70249;PMS5003;57644;48.416;-123.374;2023-03-01T15:40:49;10;9;
70249;PMS5003;57644;48.416;-123.374;2023-03-01T15:48:19;10;10;
70249;PMS5003;57644;48.416;-123.374;2023-03-01T15:50:54;15;14;
70249;PMS5003;57644;48.416;-123.374;2023-03-01T15:53:20;13;11;
70249;PMS5003;57644;48.416;-123.374;2023-03-01T15:55:51;11;11;
70249;PMS5003;57644;48.416;-123.374;2023-03-01T15:58:22;14;14;
70249;PMS5003;57644;48.416;-123.374;2023-03-01T16:00:52;18;18;
70249;PMS5003;57644;48.416;-123.374;2023-03-01T16:03:23;14;11;
70249;PMS5003;57644;48.416;-123.374;2023-03-01T16:05:54;11;11;
70249;PMS5003;57644;48.416;-123.374;2023-03-01T16:08:24;13;12;
70249;PMS5003;57644;48.416;-123.374;2023-03-01T16:10:54;15;14;
70249;PMS5003;57644;48.416;-123.374;2023-03-01T16:13:25;12;12;
70249;PMS5003;57644;48.416;-123.374;2023-03-01T16:15:55;14;11;
70249;PMS5003;57644;48.416;-123.374;2023-03-01T16:18:26;18;17;
70249;PMS5003;57644;48.416;-123.374;2023-03-01T16:20:56;13;12;
70249;PMS5003;57644;48.416;-123.374;2023-03-01T16:23:27;14;12;
70249;PMS5003;57644;48.416;-123.374;2023-03-01T16:25:58;21;19;
70249;PMS5003;57644;48.416;-123.374;2023-03-01T16:28:27;19;17;
70249;PMS5003;57644;48.416;-123.374;2023-03-01T16:30:58;16;16;
70249;PMS5003;57644;48.416;-123.374;2023-03-01T16:33:29;13;13;
70249;PMS5003;57644;48.416;-123.374;2023-03-01T16:36:00;14;14;
70249;PMS5003;57644;48.416;-123.374;2023-03-01T16:38:31;16;16;
70249;PMS5003;57644;48.416;-123.374;2023-03-01T16:40:59;17;16;
70249;PMS5003;57644;48.416;-123.374;2023-03-01T16:43:30;18;16;
70249;PMS5003;57644;48.416;-123.374;2023-03-01T16:46:01;18;18;
70249;PMS5003;57644;48.416;-123.374;2023-03-01T16:48:33;14;13;
70249;PMS5003;57644;48.416;-123.374;2023-03-01T16:51:01;21;17;